TimeMST,TemperatureF,Dew PointF,Humidity,Sea Level PressureIn,VisibilityMPH,Wind Direction,Wind SpeedMPH,Gust SpeedMPH,PrecipitationIn,Events,Conditions,WindDirDegrees,DateUTC
12:53 AM,28.0,18.0,66,30.18,10.0,West,17.3,-,N/A,,Mostly Cloudy,260,2013-02-16 07:53:00
1:53 AM,33.1,21.9,64,30.16,10.0,West,15.0,-,N/A,,Overcast,270,2013-02-16 08:53:00
2:53 AM,33.1,23.0,66,30.15,10.0,West,12.7,-,N/A,,Overcast,270,2013-02-16 09:53:00
3:53 AM,33.1,23.0,66,30.16,10.0,West,13.8,-,N/A,,Overcast,270,2013-02-16 10:53:00
4:53 AM,33.8,23.0,65,30.05,10.0,WSW,15.0,-,N/A,,Overcast,250,2013-02-16 11:53:00
5:53 AM,34.0,23.0,64,30.14,10.0,West,11.5,-,N/A,,Overcast,270,2013-02-16 12:53:00
6:53 AM,34.0,24.1,67,30.13,10.0,West,10.4,-,N/A,,Overcast,280,2013-02-16 13:53:00
7:53 AM,32.0,21.9,66,30.13,10.0,West,12.7,-,N/A,,Clear,260,2013-02-16 14:53:00
8:53 AM,34.0,23.0,64,30.12,10.0,WSW,10.4,-,N/A,,Clear,240,2013-02-16 15:53:00
9:53 AM,37.0,24.1,59,30.10,10.0,WSW,10.4,-,N/A,,Clear,250,2013-02-16 16:53:00
10:53 AM,37.9,25.0,60,30.09,10.0,WSW,13.8,-,N/A,,Clear,240,2013-02-16 17:53:00
11:53 AM,39.9,27.0,60,30.07,10.0,WSW,10.4,-,N/A,,Clear,240,2013-02-16 18:53:00
12:53 PM,44.1,26.1,49,30.05,10.0,West,6.9,-,N/A,,Clear,260,2013-02-16 19:53:00
1:53 PM,46.0,27.0,47,29.99,10.0,West,8.1,-,N/A,,Clear,270,2013-02-16 20:53:00
2:53 PM,46.0,30.0,54,29.97,10.0,WSW,6.9,-,N/A,,Clear,240,2013-02-16 21:53:00
3:53 PM,46.0,28.9,51,29.97,10.0,SW,8.1,-,N/A,,Clear,230,2013-02-16 22:53:00
4:53 PM,42.1,30.0,62,29.95,10.0,SW,5.8,-,N/A,,Clear,220,2013-02-16 23:53:00
5:53 PM,34.0,28.0,79,29.96,10.0,South,5.8,-,N/A,,Clear,170,2013-02-17 00:53:00
6:53 PM,32.0,26.1,79,29.95,10.0,South,4.6,-,N/A,,Clear,170,2013-02-17 01:53:00
7:53 PM,32.0,25.0,75,29.92,10.0,South,10.4,-,N/A,,Clear,180,2013-02-17 02:53:00
8:53 PM,32.0,25.0,75,29.90,10.0,South,8.1,-,N/A,,Clear,170,2013-02-17 03:53:00
9:53 PM,36.0,24.1,62,29.86,10.0,SSW,12.7,-,N/A,,Clear,210,2013-02-17 04:53:00
10:53 PM,36.0,24.1,62,29.83,10.0,SW,16.1,-,N/A,,Clear,220,2013-02-17 05:53:00
11:53 PM,33.1,23.0,66,29.78,10.0,SSW,12.7,-,N/A,,Clear,210,2013-02-17 06:53:00